< < Back
Terminal Aerodrome Forecast


Current Version              Previous Versions:   1  2  3  4  5  6  7  8  9  

Terminal Aerodrome Forecast

292
FTUS42 KGSP 012000 AAB
TAFHKY
TAF AMD
KHKY 012057Z 0121/0218 24006KT P6SM VCTS SCT050CB BKN150
     FM020100 00000KT P6SM SCT080
     FM021100 00000KT 5SM BR FEW120
     FM021300 24006KT P6SM FEW040 SCT120=



Latest METAR

259
SAUS70 KWBC 012300 RRX
MTRHKY
METAR KHKY 012253Z AUTO 25004KT 10SM CLR 28/18 A3007 RMK AO2 SLP160
T02830183 $


USA.gov is the U.S. government's official web portal to all federal, state and local government web resources and services.